createdAt,value
2017-08-09T00:01:05.265Z,80.30
2017-08-09T00:03:31.597Z,80.20
2017-08-09T00:05:57.838Z,79.80
2017-08-09T00:08:24.073Z,79.60
2017-08-09T00:10:50.354Z,79.40
2017-08-09T00:13:16.609Z,79.30
2017-08-09T00:15:42.864Z,79.30
2017-08-09T00:18:09.121Z,79.20
2017-08-09T00:20:35.349Z,79.10
2017-08-09T00:23:01.633Z,79.00
2017-08-09T00:25:28.673Z,79.10
2017-08-09T00:27:55.634Z,79.10
2017-08-09T00:30:21.874Z,79.00
2017-08-09T00:32:48.113Z,79.10
2017-08-09T00:35:14.374Z,79.00
2017-08-09T00:37:40.621Z,79.20
2017-08-09T00:40:06.891Z,79.10
2017-08-09T00:42:33.885Z,79.10
2017-08-09T00:45:00.141Z,79.10
2017-08-09T00:47:26.464Z,78.80
2017-08-09T00:49:52.686Z,78.90
2017-08-09T00:52:20.613Z,79.00
2017-08-09T00:54:46.856Z,78.10
2017-08-09T00:57:13.850Z,78.60
2017-08-09T00:59:40.109Z,78.50
2017-08-09T01:02:06.445Z,78.60
2017-08-09T01:04:32.725Z,78.60
2017-08-09T01:06:59.009Z,78.30
2017-08-09T01:09:25.816Z,78.10
2017-08-09T01:11:52.057Z,78.00
2017-08-09T01:14:18.285Z,77.20
2017-08-09T01:16:44.566Z,77.50
2017-08-09T01:19:10.820Z,77.50
2017-08-09T01:21:44.987Z,76.50
2017-08-09T01:24:11.217Z,76.60
2017-08-09T01:26:37.446Z,75.80
2017-08-09T01:29:04.581Z,76.40
2017-08-09T01:31:31.553Z,77.30
2017-08-09T01:33:57.793Z,77.30
2017-08-09T01:36:24.181Z,76.50
2017-08-09T01:38:51.176Z,77.50
2017-08-09T01:41:17.417Z,76.80
2017-08-09T01:43:43.770Z,76.50
2017-08-09T01:46:10.018Z,76.70
2017-08-09T01:48:36.271Z,76.30
2017-08-09T01:51:03.873Z,75.70
2017-08-09T01:53:30.618Z,75.60
2017-08-09T01:55:57.613Z,75.10
2017-08-09T01:58:23.992Z,75.10
2017-08-09T02:00:50.988Z,75.80
2017-08-09T02:03:17.248Z,75.50
2017-08-09T02:05:43.501Z,76.60
2017-08-09T02:08:09.786Z,76.00
2017-08-09T02:10:36.037Z,76.60
2017-08-09T02:13:02.345Z,76.80
2017-08-09T02:15:28.595Z,76.70
2017-08-09T02:17:54.902Z,76.20
2017-08-09T02:20:21.924Z,76.30
2017-08-09T02:22:48.185Z,76.30
2017-08-09T02:25:14.450Z,75.80
2017-08-09T02:27:40.775Z,75.90
2017-08-09T02:30:07.043Z,75.80
2017-08-09T02:32:33.333Z,75.90
2017-08-09T02:35:04.265Z,76.00
2017-08-09T02:37:31.297Z,75.20
2017-08-09T02:39:58.381Z,75.10
2017-08-09T02:42:25.379Z,75.20
2017-08-09T02:44:51.632Z,75.10
2017-08-09T02:47:17.875Z,74.60
2017-08-09T02:49:44.911Z,74.90
2017-08-09T02:52:11.187Z,74.40
2017-08-09T02:54:40.143Z,74.70
2017-08-09T02:57:06.450Z,74.60
2017-08-09T02:59:32.677Z,75.00
2017-08-09T03:01:58.916Z,74.10
2017-08-09T03:04:25.210Z,73.70
2017-08-09T03:06:51.487Z,72.30
2017-08-09T03:09:17.783Z,72.90
2017-08-09T03:11:44.858Z,70.80
2017-08-09T03:14:11.149Z,70.80
2017-08-09T03:16:37.425Z,69.50
2017-08-09T03:19:05.415Z,69.80
2017-08-09T03:21:31.706Z,69.00
2017-08-09T03:23:58.057Z,69.10
2017-08-09T03:26:26.011Z,69.20
2017-08-09T03:28:52.298Z,70.40
2017-08-09T03:31:18.553Z,69.60
2017-08-09T03:33:44.853Z,69.50
2017-08-09T03:36:11.157Z,70.60
2017-08-09T03:38:37.433Z,69.90
2017-08-09T03:41:06.239Z,70.00
2017-08-09T03:43:32.562Z,69.90
2017-08-09T03:45:58.813Z,70.40
2017-08-09T03:48:25.146Z,70.20
2017-08-09T03:50:51.464Z,70.10
2017-08-09T03:53:17.743Z,70.50
2017-08-09T03:55:44.967Z,70.80
2017-08-09T03:58:11.242Z,70.50
2017-08-09T04:00:37.510Z,71.00
2017-08-09T04:03:06.183Z,71.90
2017-08-09T04:05:32.472Z,71.90
2017-08-09T04:07:58.755Z,71.80
2017-08-09T04:10:26.596Z,70.70
2017-08-09T04:12:52.858Z,70.60
2017-08-09T04:15:19.094Z,70.90
2017-08-09T04:17:46.163Z,71.20
2017-08-09T04:20:13.242Z,71.20
2017-08-09T04:22:39.487Z,71.20
2017-08-09T04:25:06.735Z,71.20
2017-08-09T04:27:33.003Z,70.90
2017-08-09T04:29:59.270Z,70.90
2017-08-09T04:32:25.646Z,70.20
2017-08-09T04:34:51.906Z,70.70
2017-08-09T04:37:18.186Z,70.20
2017-08-09T04:39:45.216Z,70.10
2017-08-09T04:42:11.486Z,70.40
2017-08-09T04:44:38.516Z,70.30
2017-08-09T04:47:04.852Z,70.20
2017-08-09T04:49:31.127Z,70.90
2017-08-09T04:51:57.416Z,70.40
2017-08-09T04:54:23.721Z,70.20
2017-08-09T04:56:50.666Z,70.40
2017-08-09T04:59:16.952Z,70.70
2017-08-09T05:01:43.431Z,70.10
2017-08-09T05:04:09.724Z,69.70
2017-08-09T05:06:36.748Z,70.00
2017-08-09T05:09:03.370Z,70.10
2017-08-09T05:11:29.655Z,70.50
2017-08-09T05:13:55.932Z,70.70
2017-08-09T05:16:22.338Z,69.70
2017-08-09T05:18:49.546Z,69.50
2017-08-09T05:21:15.830Z,69.40
2017-08-09T05:23:42.866Z,69.50
2017-08-09T05:26:09.166Z,69.50
2017-08-09T05:28:35.483Z,70.30
2017-08-09T05:31:02.137Z,69.90
2017-08-09T05:33:28.402Z,68.70
2017-08-09T05:35:54.697Z,69.30
2017-08-09T05:38:21.098Z,69.60
2017-08-09T05:40:47.373Z,69.90
2017-08-09T05:43:13.731Z,70.20
2017-08-09T05:45:40.034Z,70.60
2017-08-09T05:48:06.334Z,69.50
2017-08-09T05:50:32.664Z,70.10
2017-08-09T05:52:59.008Z,69.60
2017-08-09T05:55:25.298Z,69.30
2017-08-09T05:58:05.532Z,69.90
2017-08-09T06:00:33.225Z,70.60
2017-08-09T06:02:59.540Z,70.70
2017-08-09T06:05:25.854Z,70.00
2017-08-09T06:07:52.872Z,69.20
2017-08-09T06:10:19.164Z,69.10
2017-08-09T06:12:46.427Z,69.70
2017-08-09T06:15:12.694Z,69.40
2017-08-09T06:17:38.986Z,68.90
2017-08-09T06:20:06.158Z,69.80
2017-08-09T06:22:33.147Z,71.10
2017-08-09T06:24:59.434Z,70.40
2017-08-09T06:27:26.471Z,69.90
2017-08-09T06:29:53.547Z,69.80
2017-08-09T06:32:19.838Z,69.70
2017-08-09T06:34:47.438Z,70.00
2017-08-09T06:37:13.766Z,70.00
2017-08-09T06:39:40.115Z,69.30
2017-08-09T06:42:07.146Z,69.20
2017-08-09T06:44:34.184Z,70.00
2017-08-09T06:47:00.534Z,69.90
2017-08-09T06:49:27.603Z,68.60
2017-08-09T06:51:54.625Z,68.00
2017-08-09T06:54:20.903Z,68.00
2017-08-09T06:56:48.503Z,68.00
2017-08-09T06:59:14.809Z,68.00
2017-08-09T07:01:41.187Z,67.60
2017-08-09T07:04:07.990Z,67.40
2017-08-09T07:06:34.294Z,67.00
2017-08-09T07:09:01.322Z,66.80
2017-08-09T07:11:27.615Z,66.80
2017-08-09T07:13:54.604Z,64.80
2017-08-09T07:16:20.887Z,64.70
2017-08-09T07:18:47.967Z,66.60
2017-08-09T07:21:14.234Z,66.20
2017-08-09T07:23:40.515Z,65.70
2017-08-09T07:26:07.337Z,65.30
2017-08-09T07:28:33.762Z,65.30
2017-08-09T07:31:00.058Z,65.30
2017-08-09T07:33:26.339Z,65.20
2017-08-09T07:35:52.619Z,64.90
2017-08-09T07:38:18.898Z,64.60
2017-08-09T07:40:46.239Z,63.80
2017-08-09T07:43:12.524Z,63.70
2017-08-09T07:45:38.779Z,63.30
2017-08-09T07:48:05.805Z,63.30
2017-08-09T07:50:32.833Z,63.90
2017-08-09T07:52:59.107Z,63.90
2017-08-09T07:55:25.450Z,63.60
2017-08-09T07:57:52.471Z,62.40
2017-08-09T08:00:18.731Z,62.40
2017-08-09T08:02:46.922Z,62.90
2017-08-09T08:05:13.927Z,63.30
2017-08-09T08:07:40.191Z,63.30
2017-08-09T08:10:06.648Z,63.60
2017-08-09T08:12:33.656Z,63.90
2017-08-09T08:14:59.936Z,63.90
2017-08-09T08:17:27.051Z,62.50
2017-08-09T08:19:53.332Z,62.40
2017-08-09T08:22:19.604Z,63.30
2017-08-09T08:24:45.932Z,64.10
2017-08-09T08:27:12.186Z,63.30
2017-08-09T08:29:38.466Z,63.00
2017-08-09T08:32:05.511Z,62.60
2017-08-09T08:34:32.509Z,62.90
2017-08-09T08:36:58.810Z,62.70
2017-08-09T08:39:25.257Z,62.00
2017-08-09T08:41:51.544Z,62.20
2017-08-09T08:44:17.824Z,61.90
2017-08-09T08:46:45.478Z,61.70
2017-08-09T08:49:12.495Z,61.10
2017-08-09T08:51:38.767Z,61.00
2017-08-09T08:54:05.783Z,61.70
2017-08-09T08:56:32.066Z,61.70
2017-08-09T08:58:59.059Z,60.30
2017-08-09T09:01:25.348Z,60.20
2017-08-09T09:03:52.811Z,59.60
2017-08-09T09:06:19.874Z,58.90
2017-08-09T09:08:47.418Z,60.00
2017-08-09T09:11:14.450Z,59.70
2017-08-09T09:13:40.712Z,59.60
2017-08-09T09:16:07.875Z,60.30
2017-08-09T09:18:34.910Z,60.90
2017-08-09T09:21:01.965Z,61.30
2017-08-09T09:23:28.272Z,60.90
2017-08-09T09:25:54.539Z,60.40
2017-08-09T09:28:20.786Z,59.70
2017-08-09T09:30:49.091Z,59.20
2017-08-09T09:33:15.367Z,59.10
2017-08-09T09:35:41.706Z,59.00
2017-08-09T09:38:08.003Z,59.30
2017-08-09T09:40:34.303Z,58.90
2017-08-09T09:43:01.314Z,58.00
2017-08-09T09:45:27.635Z,58.00
2017-08-09T09:47:53.928Z,59.00
2017-08-09T09:50:20.960Z,59.80
2017-08-09T09:52:47.307Z,59.00
2017-08-09T09:55:13.591Z,59.20
2017-08-09T09:57:39.867Z,59.40
2017-08-09T10:00:06.288Z,59.40
2017-08-09T10:02:32.562Z,59.20
2017-08-09T10:05:00.172Z,59.50
2017-08-09T10:07:26.619Z,59.40
2017-08-09T10:09:52.896Z,59.80
2017-08-09T10:12:19.919Z,60.20
2017-08-09T10:14:47.068Z,60.00
2017-08-09T10:17:13.370Z,60.40
2017-08-09T10:19:39.626Z,59.90
2017-08-09T10:22:05.952Z,58.90
2017-08-09T10:24:32.935Z,58.40
2017-08-09T10:26:59.208Z,58.30
2017-08-09T10:29:26.339Z,58.20
2017-08-09T10:31:52.614Z,58.40
2017-08-09T10:34:19.644Z,58.70
2017-08-09T10:36:47.538Z,59.60
2017-08-09T10:39:14.548Z,59.20
2017-08-09T10:41:40.825Z,59.10
2017-08-09T10:44:07.267Z,59.10
2017-08-09T10:46:35.358Z,59.70
2017-08-09T10:49:02.632Z,59.50
2017-08-09T10:51:29.280Z,59.50
2017-08-09T10:53:55.860Z,59.70
2017-08-09T10:56:22.976Z,60.50
2017-08-09T10:58:50.695Z,60.70
2017-08-09T11:01:17.080Z,60.60
2017-08-09T11:03:43.381Z,60.40
2017-08-09T11:06:13.959Z,61.00
2017-08-09T11:08:40.372Z,60.90
2017-08-09T11:11:07.057Z,61.20
2017-08-09T11:13:34.340Z,59.60
2017-08-09T11:16:01.479Z,60.60
2017-08-09T11:18:27.800Z,59.90
2017-08-09T11:20:54.407Z,59.50
2017-08-09T11:23:20.676Z,59.40
2017-08-09T11:25:46.950Z,59.00
2017-08-09T11:28:13.948Z,59.60
2017-08-09T11:30:41.027Z,60.10
2017-08-09T11:33:08.119Z,59.50
2017-08-09T11:35:35.150Z,59.80
2017-08-09T11:38:02.295Z,59.80
2017-08-09T11:40:28.743Z,59.40
2017-08-09T11:42:55.774Z,59.60
2017-08-09T11:45:22.098Z,60.10
2017-08-09T11:47:48.548Z,60.40
2017-08-09T11:50:16.007Z,60.50
2017-08-09T11:52:42.407Z,59.90
2017-08-09T11:55:08.711Z,60.30
2017-08-09T11:57:35.002Z,59.70
2017-08-09T12:00:01.694Z,59.80
2017-08-09T12:02:28.132Z,60.40
2017-08-09T12:04:54.898Z,60.70
2017-08-09T12:07:33.572Z,60.00
2017-08-09T12:09:59.940Z,60.60
2017-08-09T12:12:26.419Z,60.20
2017-08-09T12:14:53.517Z,60.40
2017-08-09T12:17:20.757Z,60.00
2017-08-09T12:19:47.167Z,59.70
2017-08-09T12:22:13.538Z,59.60
2017-08-09T12:24:40.978Z,58.60
2017-08-09T12:27:07.243Z,58.80
2017-08-09T12:29:33.552Z,58.00
2017-08-09T12:32:00.016Z,58.00
2017-08-09T12:34:27.139Z,58.20
2017-08-09T12:36:53.486Z,58.20
2017-08-09T12:39:19.786Z,57.80
2017-08-09T12:41:46.823Z,57.70
2017-08-09T12:44:13.849Z,58.60
2017-08-09T12:46:41.367Z,58.00
2017-08-09T12:49:08.599Z,58.30
2017-08-09T12:51:35.735Z,59.00
2017-08-09T12:54:02.066Z,59.00
2017-08-09T12:56:28.363Z,59.20
2017-08-09T12:58:54.762Z,59.40
2017-08-09T13:01:21.910Z,58.90
2017-08-09T13:03:48.318Z,58.90
2017-08-09T13:06:14.580Z,59.00
2017-08-09T13:08:42.415Z,59.10
2017-08-09T13:11:08.685Z,58.80
2017-08-09T13:13:35.715Z,58.20
2017-08-09T13:16:02.035Z,58.20
2017-08-09T13:18:29.156Z,58.10
2017-08-09T13:20:55.427Z,58.30
2017-08-09T13:23:21.718Z,58.40
2017-08-09T13:25:48.730Z,58.70
2017-08-09T13:28:15.022Z,58.70
2017-08-09T13:30:43.188Z,58.80
2017-08-09T13:33:10.828Z,58.10
2017-08-09T13:35:37.222Z,58.50
2017-08-09T13:38:03.520Z,58.50
2017-08-09T13:40:30.757Z,58.70
2017-08-09T13:42:56.995Z,58.30
2017-08-09T13:45:23.398Z,58.90
2017-08-09T13:47:49.699Z,59.30
2017-08-09T13:50:17.455Z,57.70
2017-08-09T13:52:44.855Z,57.30
2017-08-09T13:55:12.286Z,57.30
2017-08-09T13:57:39.839Z,57.30
2017-08-09T14:00:07.897Z,56.70
2017-08-09T14:02:34.950Z,57.30
2017-08-09T14:05:01.344Z,56.80
2017-08-09T14:07:27.640Z,56.70
2017-08-09T14:10:05.813Z,56.90
2017-08-09T14:12:32.285Z,57.00
2017-08-09T14:14:58.826Z,56.50
2017-08-09T14:17:26.170Z,56.70
2017-08-09T14:19:52.613Z,56.70
2017-08-09T14:22:26.588Z,56.70
2017-08-09T14:24:52.957Z,56.70
2017-08-09T14:27:21.175Z,56.40
2017-08-09T14:29:47.468Z,56.60
2017-08-09T14:32:14.502Z,56.60
2017-08-09T14:34:41.464Z,56.90
2017-08-09T14:37:07.896Z,56.60
2017-08-09T14:39:34.770Z,55.30
2017-08-09T14:42:01.939Z,56.10
2017-08-09T14:44:28.946Z,55.80
2017-08-09T14:46:55.658Z,55.60
2017-08-09T14:49:21.997Z,56.20
2017-08-09T14:51:48.277Z,55.70
2017-08-09T14:54:15.362Z,55.40
2017-08-09T14:56:41.653Z,54.50
2017-08-09T14:59:07.947Z,54.30
2017-08-09T15:01:35.085Z,54.30
2017-08-09T15:04:01.364Z,54.40
2017-08-09T15:06:28.408Z,54.20
2017-08-09T15:08:54.730Z,53.90
2017-08-09T15:11:28.672Z,54.40
2017-08-09T15:13:54.939Z,54.10
2017-08-09T15:16:30.845Z,53.30
2017-08-09T15:18:57.180Z,53.40
2017-08-09T15:21:23.492Z,53.60
2017-08-09T15:23:49.968Z,53.70
2017-08-09T15:26:16.256Z,53.10
2017-08-09T15:28:42.552Z,53.00
2017-08-09T15:31:08.864Z,53.00
2017-08-09T15:33:35.143Z,53.50
2017-08-09T15:36:01.410Z,53.60
2017-08-09T15:38:28.519Z,52.60
2017-08-09T15:40:54.815Z,52.60
2017-08-09T15:43:21.845Z,52.30
2017-08-09T15:45:48.922Z,52.90
2017-08-09T15:48:15.933Z,52.50
2017-08-09T15:50:42.178Z,52.50
2017-08-09T15:53:09.380Z,52.10
2017-08-09T15:55:35.723Z,52.10
2017-08-09T15:58:02.002Z,52.10
2017-08-09T16:00:28.427Z,52.90
2017-08-09T16:02:54.725Z,52.70
2017-08-09T16:05:21.020Z,52.40
2017-08-09T16:07:47.351Z,52.90
2017-08-09T16:10:13.614Z,52.60
2017-08-09T16:12:41.604Z,54.20
2017-08-09T16:15:08.646Z,54.50
2017-08-09T16:17:36.607Z,54.10
2017-08-09T16:20:02.899Z,53.90
2017-08-09T16:22:29.244Z,54.20
2017-08-09T16:24:55.527Z,54.20
2017-08-09T16:27:21.822Z,53.70
2017-08-09T16:29:48.227Z,54.30
2017-08-09T16:32:14.482Z,54.50
2017-08-09T16:34:40.900Z,54.50
2017-08-09T16:37:07.327Z,54.30
2017-08-09T16:39:33.579Z,54.00
2017-08-09T16:41:59.837Z,54.10
2017-08-09T16:44:26.135Z,53.30
2017-08-09T16:46:52.411Z,52.80
2017-08-09T16:49:19.492Z,54.20
2017-08-09T16:51:45.806Z,53.50
2017-08-09T16:54:12.055Z,53.30
2017-08-09T16:56:38.300Z,53.60
2017-08-09T16:59:04.598Z,53.80
2017-08-09T17:01:30.859Z,53.70
2017-08-09T17:03:57.110Z,53.70
2017-08-09T17:06:23.417Z,53.40
2017-08-09T17:08:49.705Z,53.50
2017-08-09T17:11:16.000Z,53.50
2017-08-09T17:13:43.331Z,53.20
2017-08-09T17:16:09.598Z,53.30
2017-08-09T17:18:36.179Z,53.60
2017-08-09T17:21:03.206Z,53.60
2017-08-09T17:23:30.243Z,53.20
2017-08-09T17:25:56.520Z,53.20
2017-08-09T17:28:23.421Z,53.00
2017-08-09T17:30:49.650Z,53.20
2017-08-09T17:33:15.951Z,53.20
2017-08-09T17:35:42.271Z,53.50
2017-08-09T17:38:08.522Z,53.30
2017-08-09T17:40:34.801Z,53.30
2017-08-09T17:43:01.094Z,53.10
2017-08-09T17:45:27.431Z,53.30
2017-08-09T17:47:53.708Z,52.90
2017-08-09T17:50:20.642Z,52.90
2017-08-09T17:52:46.921Z,52.90
2017-08-09T17:55:13.210Z,52.80
2017-08-09T17:57:39.785Z,52.70
2017-08-09T18:00:06.075Z,53.20
2017-08-09T18:02:32.389Z,52.90
2017-08-09T18:04:58.811Z,52.90
2017-08-09T18:07:25.078Z,53.10
2017-08-09T18:09:51.362Z,52.30
2017-08-09T18:12:17.688Z,52.80
2017-08-09T18:14:45.327Z,52.80
2017-08-09T18:17:11.576Z,53.00
2017-08-09T18:19:38.007Z,52.90
2017-08-09T18:22:04.259Z,52.80
2017-08-09T18:24:30.609Z,53.20
2017-08-09T18:26:56.988Z,53.40
2017-08-09T18:29:23.243Z,53.60
2017-08-09T18:31:49.501Z,53.70
2017-08-09T18:34:15.794Z,53.70
2017-08-09T18:36:42.930Z,53.70
2017-08-09T18:39:09.199Z,53.90
2017-08-09T18:41:35.507Z,53.80
2017-08-09T18:44:01.827Z,54.10
2017-08-09T18:46:28.911Z,54.40
2017-08-09T18:48:55.219Z,54.90
2017-08-09T18:51:21.489Z,54.30
2017-08-09T18:53:47.761Z,54.90
2017-08-09T18:58:46.863Z,54.20
2017-08-09T19:01:13.161Z,54.40
2017-08-09T19:03:39.597Z,54.70
2017-08-09T19:06:06.079Z,54.60
2017-08-09T19:08:32.360Z,54.60
2017-08-09T19:10:58.638Z,54.50
2017-08-09T19:13:24.959Z,54.70
2017-08-09T19:16:03.495Z,56.10
2017-08-09T19:18:30.672Z,56.00
2017-08-09T19:20:56.950Z,56.20
2017-08-09T19:23:23.967Z,56.50
2017-08-09T19:25:50.267Z,56.40
2017-08-09T19:28:16.583Z,56.50
2017-08-09T19:30:42.851Z,56.20
2017-08-09T19:33:09.234Z,55.60
2017-08-09T19:35:35.513Z,56.00
2017-08-09T19:38:01.766Z,57.20
2017-08-09T19:40:28.611Z,57.00
2017-08-09T19:42:54.895Z,56.40
2017-08-09T19:45:21.188Z,56.30
2017-08-09T19:47:47.470Z,57.10
2017-08-09T19:50:14.487Z,58.10
2017-08-09T19:52:47.678Z,58.00
2017-08-09T19:55:13.963Z,58.90
2017-08-09T19:57:40.231Z,58.10
2017-08-09T20:00:06.675Z,58.10
2017-08-09T20:02:32.955Z,58.40
2017-08-09T20:04:59.490Z,58.40
2017-08-09T20:07:25.882Z,58.80
2017-08-09T20:09:52.212Z,59.00
2017-08-09T20:12:18.530Z,59.50
2017-08-09T20:14:44.967Z,59.50
2017-08-09T20:17:13.477Z,59.50
2017-08-09T20:19:39.852Z,58.90
2017-08-09T20:22:06.376Z,59.20
2017-08-09T20:24:32.965Z,59.30
2017-08-09T20:26:59.473Z,59.60
2017-08-09T20:29:26.004Z,59.40
2017-08-09T20:31:52.542Z,59.90
2017-08-09T20:34:19.756Z,59.80
2017-08-09T20:36:46.231Z,60.10
2017-08-09T20:39:12.734Z,60.00
2017-08-09T20:41:39.977Z,59.80
2017-08-09T20:44:06.714Z,59.80
2017-08-09T20:46:33.172Z,60.00
2017-08-09T20:49:00.939Z,60.20
2017-08-09T20:51:27.961Z,60.40
2017-08-09T20:53:54.481Z,60.80
2017-08-09T20:56:21.679Z,61.70
2017-08-09T20:58:49.102Z,61.50
2017-08-09T21:01:16.354Z,61.60
2017-08-09T21:03:43.707Z,62.00
2017-08-09T21:06:11.081Z,62.00
2017-08-09T21:08:38.319Z,63.00
2017-08-09T21:11:04.758Z,62.30
2017-08-09T21:13:32.318Z,62.50
2017-08-09T21:15:58.853Z,63.50
2017-08-09T21:18:27.330Z,62.40
2017-08-09T21:20:53.971Z,62.80
2017-08-09T21:23:21.006Z,63.20
2017-08-09T21:25:47.462Z,63.10
2017-08-09T21:28:14.521Z,63.60
2017-08-09T21:30:40.784Z,62.80
2017-08-09T21:33:08.749Z,63.40
2017-08-09T21:35:35.874Z,63.60
2017-08-09T21:38:02.146Z,63.60
2017-08-09T21:40:28.410Z,64.10
2017-08-09T21:42:54.933Z,64.30
2017-08-09T21:45:22.016Z,64.00
2017-08-09T21:47:48.275Z,64.40
2017-08-09T21:50:16.775Z,64.70
2017-08-09T21:52:43.108Z,64.60
2017-08-09T21:55:10.120Z,64.70
2017-08-09T21:57:36.416Z,64.70
2017-08-09T22:00:03.438Z,65.00
2017-08-09T22:02:30.677Z,65.00
2017-08-09T22:04:57.298Z,65.30
2017-08-09T22:07:23.540Z,65.10
2017-08-09T22:09:49.802Z,65.20
2017-08-09T22:12:16.755Z,65.50
2017-08-09T22:14:43.071Z,65.70
2017-08-09T22:17:09.327Z,65.60
2017-08-09T22:19:47.578Z,65.60
2017-08-09T22:22:13.846Z,65.60
2017-08-09T22:24:40.108Z,65.50
2017-08-09T22:27:07.176Z,65.90
2017-08-09T22:29:34.208Z,65.80
2017-08-09T22:32:01.234Z,66.00
2017-08-09T22:34:27.585Z,66.00
2017-08-09T22:36:53.855Z,65.90
2017-08-09T22:39:20.849Z,66.20
2017-08-09T22:41:47.273Z,66.20
2017-08-09T22:44:13.519Z,66.50
2017-08-09T22:46:39.774Z,66.70
2017-08-09T22:49:06.070Z,66.50
2017-08-09T22:51:32.350Z,66.60
2017-08-09T22:53:58.627Z,66.70
2017-08-09T22:56:25.999Z,67.50
2017-08-09T22:58:52.242Z,66.80
2017-08-09T23:01:18.526Z,67.60
2017-08-09T23:03:44.845Z,67.10
2017-08-09T23:06:11.103Z,66.60
2017-08-09T23:08:37.423Z,66.80
2017-08-09T23:11:03.817Z,66.80
2017-08-09T23:13:30.082Z,67.10
2017-08-09T23:15:56.375Z,66.90
2017-08-09T23:18:22.751Z,67.10
2017-08-09T23:20:49.692Z,67.20
2017-08-09T23:23:15.956Z,66.90
2017-08-09T23:25:42.246Z,66.70
2017-08-09T23:28:08.535Z,66.90
2017-08-09T23:30:34.822Z,66.70
2017-08-09T23:33:01.115Z,66.90
2017-08-09T23:35:28.142Z,66.80
2017-08-09T23:37:54.423Z,66.70
2017-08-09T23:40:21.616Z,66.70
2017-08-09T23:42:47.890Z,66.80
2017-08-09T23:45:14.152Z,66.70
2017-08-09T23:47:41.981Z,67.00
2017-08-09T23:50:08.251Z,67.00
2017-08-09T23:52:35.268Z,67.20
2017-08-09T23:55:01.691Z,67.10
2017-08-09T23:57:27.918Z,67.10
2017-08-09T23:59:54.181Z,67.30
